.
WxDataArchive / Data Records for 2014-11-12
2014-11-11 November 2014 2014-11-13

Data Records for Wednesday, 12 November 2014

Time	Temp	Chill	HIndex	Humid	Dewpt	 Wind 	HiWind	WindDir	Rain 	Barom
-----	----	-----	------	-----	-----	------	------	-------	-----	-----
00:00	35.8	35.8	35.8	83	31.2	2	7	292	0.00	29.992 
00:05	35.8	35.8	35.8	83	31.2	3	7	270	0.00	29.992 
00:10	35.8	35.8	35.8	82	30.9	2	5	270	0.00	29.992 
00:15	35.8	35.8	35.8	82	30.9	2	5	270	0.00	30.001 
00:20	35.8	35.8	35.8	81	30.6	3	6	270	0.00	30.001 
00:25	35.8	35.8	35.8	80	30.2	2	6	270	0.00	30.001 
00:30	35.8	35.8	35.8	80	30.2	2	6	270	0.00	30.011 
00:35	35.8	35.8	35.8	79	29.9	2	7	338	0.00	30.011 
00:40	35.8	35.8	35.8	78	29.6	2	7	338	0.00	30.011 
00:45	35.8	35.8	35.8	78	29.6	2	4	248	0.00	30.015 
00:50	35.8	35.8	35.8	77	29.3	3	7	315	0.00	30.015 
00:55	35.8	35.8	35.8	77	29.3	3	6	292	0.00	30.015 
01:00	35.6	35.6	35.6	77	29.1	2	5	270	0.00	30.026 
01:05	35.6	35.6	35.6	77	29.1	2	4	315	0.00	30.026 
01:10	35.6	35.6	35.6	76	28.8	3	6	292	0.00	30.026 
01:15	35.5	35.5	35.5	73	27.7	3	6	315	0.00	30.033 
01:20	35.5	35.5	35.5	73	27.7	3	9	315	0.00	30.033 
01:25	35.5	32.1	35.5	69	26.4	4	10	338	0.00	30.033 
01:30	35.5	35.5	35.5	69	26.4	3	10	315	0.00	30.042 
01:35	35.5	35.5	35.5	69	26.4	2	5	315	0.00	30.042 
01:40	35.3	35.3	35.3	70	26.5	2	6	292	0.00	30.042 
01:45	35.3	35.3	35.3	69	26.2	2	6	292	0.00	30.047 
01:50	35.3	31.9	35.3	68	25.8	4	12	270	0.00	30.047 
01:55	35.3	35.3	35.3	68	25.8	3	9	270	0.00	30.047 
02:00	35.3	35.3	35.3	68	25.8	3	6	315	0.00	30.049 
02:05	35.2	35.2	35.2	68	25.7	3	6	292	0.00	30.049 
02:10	35.2	35.2	35.2	68	25.7	3	7	292	0.00	30.049 
02:15	35.2	35.2	35.2	68	25.7	3	9	270	0.00	30.059 
02:20	35.2	31.8	35.2	67	25.4	4	12	315	0.00	30.059 
02:25	35.2	30.8	35.2	66	25.0	5	9	338	0.00	30.059 
02:30	35.2	30.8	35.2	66	25.0	5	14	292	0.00	30.068 
02:35	35.2	30.8	35.2	66	25.0	5	9	292	0.00	30.068 
02:40	35.2	35.2	35.2	67	25.4	2	6	292	0.00	30.068 
02:45	35.0	35.0	35.0	68	25.5	2	8	292	0.00	30.074 
02:50	35.0	35.0	35.0	68	25.5	2	4	292	0.00	30.074 
02:55	35.0	35.0	35.0	69	25.9	2	5	270	0.00	30.074 
03:00	35.0	35.0	35.0	69	25.9	2	5	292	0.00	30.078 
03:05	34.9	34.9	34.9	69	25.8	2	5	292	0.00	30.078 
03:10	34.9	34.9	34.9	69	25.8	2	6	292	0.00	30.078 
03:15	34.9	34.9	34.9	70	26.1	1	3	292	0.00	30.088 
03:20	34.9	34.9	34.9	70	26.1	1	5	315	0.00	30.088 
03:25	34.9	34.9	34.9	71	26.5	1	4	292	0.00	30.088 
03:30	34.9	34.9	34.9	70	26.1	3	8	292	0.00	30.089 
03:35	34.9	34.9	34.9	70	26.1	2	5	292	0.00	30.089 
03:40	34.9	34.9	34.9	70	26.1	2	4	292	0.00	30.089 
03:45	34.9	34.9	34.9	69	25.8	2	5	292	0.00	30.093 
03:50	34.7	34.7	34.7	69	25.6	2	5	292	0.00	30.093 
03:55	34.7	34.7	34.7	69	25.6	2	5	270	0.00	30.093 
04:00	34.6	34.6	34.6	69	25.5	2	7	292	0.00	30.097 
04:05	34.6	34.6	34.6	69	25.5	1	3	315	0.00	30.097 
04:10	34.4	34.4	34.4	68	24.9	2	5	338	0.00	30.097 
04:15	34.4	34.4	34.4	68	24.9	1	3	270	0.00	30.108 
04:20	34.4	34.4	34.4	68	24.9	1	3	270	0.00	30.108 
04:25	34.3	34.3	34.3	69	25.2	2	5	292	0.00	30.108 
04:30	34.3	34.3	34.3	69	25.2	0	3	315	0.00	30.113 
04:35	34.3	34.3	34.3	69	25.2	1	3	315	0.00	30.113 
04:40	34.3	34.3	34.3	69	25.2	1	4	292	0.00	30.113 
04:45	34.3	34.3	34.3	70	25.5	0	2	292	0.00	30.123 
04:50	34.3	34.3	34.3	70	25.5	0	2	292	0.00	30.123 
04:55	34.3	34.3	34.3	71	25.9	0	3	292	0.00	30.123 
05:00	34.3	34.3	34.3	70	25.5	1	3	292	0.00	30.132 
05:05	34.1	34.1	34.1	69	25.0	2	6	292	0.00	30.132 
05:10	34.1	34.1	34.1	69	25.0	3	5	315	0.00	30.132 
05:15	34.0	34.0	34.0	68	24.6	2	5	315	0.00	30.141 
05:20	33.8	33.8	33.8	67	24.0	3	6	315	0.00	30.141 
05:25	33.7	33.7	33.7	67	23.9	3	6	270	0.00	30.141 
05:30	33.5	33.5	33.5	66	23.4	2	5	315	0.00	30.144 
05:35	33.4	33.4	33.4	66	23.3	2	5	292	0.00	30.144 
05:40	33.2	33.2	33.2	65	22.7	2	6	292	0.00	30.144 
05:45	33.2	33.2	33.2	65	22.7	3	6	270	0.00	30.153 
05:50	33.2	33.2	33.2	65	22.7	1	4	270	0.00	30.153 
05:55	33.2	33.2	33.2	65	22.7	2	7	292	0.00	30.153 
06:00	33.2	33.2	33.2	65	22.7	2	6	292	0.00	30.157 
06:05	33.2	33.2	33.2	66	23.1	2	6	338	0.00	30.157 
06:10	33.2	33.2	33.2	66	23.1	2	5	292	0.00	30.157 
06:15	33.2	33.2	33.2	67	23.4	1	4	292	0.00	30.162 
06:20	33.2	33.2	33.2	67	23.4	2	5	315	0.00	30.162 
06:25	33.2	33.2	33.2	68	23.8	0	3	315	0.00	30.162 
06:30	33.2	33.2	33.2	68	23.8	1	3	315	0.00	30.162 
06:35	33.2	33.2	33.2	68	23.8	1	3	292	0.00	30.162 
06:40	33.2	33.2	33.2	69	24.2	0	4	315	0.00	30.162 
06:45	33.2	33.2	33.2	69	24.2	0	2	315	0.00	30.163 
06:50	33.2	33.2	33.2	69	24.2	1	4	315	0.00	30.163 
06:55	33.2	33.2	33.2	69	24.2	2	4	315	0.00	30.163 
07:00	33.4	33.4	33.4	68	24.0	3	6	292	0.00	30.174 
07:05	33.4	33.4	33.4	68	24.0	2	4	292	0.00	30.174 
07:10	33.4	33.4	33.4	68	24.0	1	3	292	0.00	30.174 
07:15	33.4	33.4	33.4	69	24.3	2	5	292	0.00	30.187 
07:20	33.2	33.2	33.2	68	23.8	2	4	292	0.00	30.187 
07:25	33.1	33.1	33.1	67	23.4	2	7	292	0.00	30.187 
07:30	32.9	32.9	32.9	67	23.2	2	5	292	0.00	30.181 
07:35	32.9	32.9	32.9	66	22.8	2	6	270	0.00	30.181 
07:40	32.8	32.8	32.8	65	22.3	2	6	315	0.00	30.181 
07:45	32.8	32.8	32.8	65	22.3	2	6	315	0.00	30.183 
07:50	32.7	32.7	32.7	65	22.3	3	7	338	0.00	30.183 
07:55	32.7	32.7	32.7	66	22.6	2	5	292	0.00	30.183 
08:00	32.7	32.7	32.7	66	22.6	1	6	315	0.00	30.187 
08:05	32.7	32.7	32.7	67	23.0	1	3	315	0.00	30.187 
08:10	32.8	32.8	32.8	67	23.1	2	5	315	0.00	30.187 
08:15	32.8	32.8	32.8	67	23.1	1	4	315	0.00	30.199 
08:20	32.8	32.8	32.8	67	23.1	1	4	292	0.00	30.199 
08:25	32.9	32.9	32.9	68	23.5	0	3	292	0.00	30.199 
08:30	32.9	32.9	32.9	68	23.5	0	2	292	0.00	30.203 
08:35	32.9	32.9	32.9	68	23.5	1	4	292	0.00	30.203 
08:40	32.9	32.9	32.9	68	23.5	1	3	292	0.00	30.203 
08:45	32.9	32.9	32.9	68	23.5	1	4	292	0.00	30.205 
08:50	32.9	32.9	32.9	68	23.5	0	3	292	0.00	30.205 
08:55	33.1	33.1	33.1	69	24.1	1	3	292	0.00	30.205 
09:00	32.9	32.9	32.9	70	24.2	1	4	292	0.00	30.214 
09:05	32.8	32.8	32.8	71	24.4	1	3	248	0.00	30.214 
09:10	32.7	32.7	32.7	71	24.4	1	6	270	0.00	30.214 
09:15	32.5	32.5	32.5	71	24.2	1	5	270	0.00	30.230 
09:20	32.5	32.5	32.5	71	24.2	1	3	270	0.00	30.230 
09:25	32.5	32.5	32.5	72	24.5	1	3	270	0.00	30.230 
09:30	32.5	32.5	32.5	72	24.5	0	2	270	0.00	30.235 
09:35	32.5	32.5	32.5	71	24.2	2	4	270	0.00	30.235 
09:40	32.4	32.4	32.4	71	24.1	1	4	270	0.00	30.235 
09:45	32.4	32.4	32.4	70	23.7	2	4	270	0.00	30.234 
09:50	32.4	32.4	32.4	70	23.7	1	3	270	0.00	30.234 
09:55	32.4	32.4	32.4	70	23.7	1	3	270	0.00	30.234 
10:00	32.5	32.5	32.5	70	23.8	1	3	270	0.00	30.239 
10:05	32.5	32.5	32.5	70	23.8	1	4	270	0.00	30.239 
10:10	32.5	32.5	32.5	70	23.8	1	5	270	0.00	30.239 
10:15	32.5	32.5	32.5	70	23.8	1	4	270	0.00	30.242 
10:20	32.5	32.5	32.5	70	23.8	0	3	248	0.00	30.242 
10:25	32.5	32.5	32.5	70	23.8	1	3	248	0.00	30.242 
10:30	32.5	32.5	32.5	70	23.8	1	3	248	0.00	30.250 
10:35	32.7	32.7	32.7	70	24.0	1	4	248	0.00	30.250 
10:40	32.7	32.7	32.7	70	24.0	0	3	248	0.00	30.250 
10:45	32.8	32.8	32.8	70	24.1	1	3	248	0.00	30.251 
10:50	32.8	32.8	32.8	69	23.8	1	4	270	0.00	30.251 
10:55	32.8	32.8	32.8	69	23.8	1	3	270	0.00	30.251 
11:00	32.8	32.8	32.8	69	23.8	1	3	270	0.00	30.238 
11:05	32.9	32.9	32.9	70	24.2	1	4	270	0.00	30.238 
11:10	32.9	32.9	32.9	69	23.9	1	5	270	0.00	30.238 
11:15	32.9	32.9	32.9	69	23.9	1	3	248	0.00	30.241 
11:20	32.9	32.9	32.9	69	23.9	1	3	248	0.00	30.241 
11:25	32.8	32.8	32.8	69	23.8	2	4	248	0.00	30.241 
11:30	32.8	32.8	32.8	69	23.8	1	4	248	0.00	30.239 
11:35	32.8	32.8	32.8	69	23.8	1	3	248	0.00	30.239 
11:40	32.9	32.9	32.9	69	23.9	1	3	248	0.00	30.239 
11:45	32.8	32.8	32.8	69	23.8	1	3	248	0.00	30.239 
11:50	32.8	32.8	32.8	69	23.8	0	2	248	0.00	30.239 
11:55	32.8	32.8	32.8	68	23.4	1	4	248	0.00	30.239 
12:00	32.8	32.8	32.8	67	23.1	2	4	248	0.00	30.225 
12:05	32.8	32.8	32.8	67	23.1	1	3	248	0.00	30.225 
12:10	32.8	32.8	32.8	65	22.3	1	5	248	0.00	30.225 
12:15	32.8	32.8	32.8	65	22.3	1	3	248	0.00	30.228 
12:20	32.8	32.8	32.8	65	22.3	1	4	248	0.00	30.228 
12:25	32.7	32.7	32.7	65	22.3	1	3	248	0.00	30.228 
12:30	32.7	32.7	32.7	65	22.3	1	3	248	0.00	30.225 
12:35	32.7	32.7	32.7	65	22.3	1	3	248	0.00	30.225 
12:40	32.8	32.8	32.8	66	22.7	0	2	248	0.00	30.225 
12:45	32.8	32.8	32.8	66	22.7	1	4	248	0.00	30.226 
12:50	32.8	32.8	32.8	65	22.3	1	3	248	0.00	30.226 
12:55	32.8	32.8	32.8	65	22.3	1	4	248	0.00	30.226 
13:00	32.7	32.7	32.7	65	22.3	1	4	248	0.00	30.219 
13:05	32.5	32.5	32.5	64	21.7	1	5	248	0.00	30.219 
13:10	32.7	32.7	32.7	64	21.9	2	4	270	0.00	30.219 
13:15	32.7	32.7	32.7	64	21.9	1	4	270	0.00	30.220 
13:20	32.5	32.5	32.5	65	22.1	1	3	270	0.00	30.220 
13:25	32.5	32.5	32.5	65	22.1	2	5	315	0.00	30.220 
13:30	32.4	32.4	32.4	65	22.0	1	4	292	0.00	30.231 
13:35	32.4	32.4	32.4	66	22.3	1	3	292	0.00	30.231 
13:40	32.2	32.2	32.2	66	22.1	1	3	292	0.00	30.231 
13:45	32.2	32.2	32.2	66	22.1	1	3	292	0.00	30.221 
13:50	32.1	32.1	32.1	66	22.0	1	3	292	0.00	30.221 
13:55	32.1	32.1	32.1	66	22.0	1	3	292	0.00	30.221 
14:00	31.9	31.9	31.9	66	21.9	1	3	292	0.00	30.219 
14:05	31.9	31.9	31.9	67	22.2	1	4	292	0.00	30.219 
14:10	31.9	31.9	31.9	67	22.2	1	2	292	0.00	30.219 
14:15	32.1	32.1	32.1	67	22.4	0	2	292	0.00	30.221 
14:20	32.1	32.1	32.1	66	22.0	1	3	292	0.00	30.221 
14:25	31.9	31.9	31.9	66	21.9	2	3	292	0.00	30.221 
14:30	31.9	31.9	31.9	66	21.9	2	6	292	0.00	30.234 
14:35	31.8	31.8	31.8	66	21.8	2	6	270	0.00	30.234 
14:40	31.8	31.8	31.8	66	21.8	2	5	292	0.00	30.234 
14:45	31.8	31.8	31.8	67	22.1	0	3	292	0.00	30.240 
14:50	31.8	31.8	31.8	66	21.8	2	5	292	0.00	30.240 
14:55	31.8	31.8	31.8	66	21.8	1	4	292	0.00	30.240 
15:00	31.8	31.8	31.8	66	21.8	1	4	292	0.00	30.242 
15:05	31.8	31.8	31.8	66	21.8	2	4	315	0.00	30.242 
15:10	31.6	31.6	31.6	66	21.6	1	3	292	0.00	30.242 
15:15	31.8	31.8	31.8	66	21.8	1	4	292	0.00	30.240 
15:20	31.8	31.8	31.8	66	21.8	1	4	292	0.00	30.240 
15:25	31.8	31.8	31.8	65	21.4	1	4	292	0.00	30.240 
15:30	31.8	31.8	31.8	65	21.4	2	4	292	0.00	30.240 
15:35	31.8	31.8	31.8	65	21.4	1	4	292	0.00	30.240 
15:40	31.9	31.9	31.9	66	21.9	0	1	292	0.00	30.240 
15:45	32.1	32.1	32.1	66	22.0	0	2	292	0.00	30.238 
15:50	32.1	32.1	32.1	65	21.7	1	4	292	0.00	30.238 
15:55	31.9	31.9	31.9	65	21.5	0	2	292	0.00	30.238 
16:00	31.9	31.9	31.9	65	21.5	0	2	292	0.00	30.241 
16:05	31.9	31.9	31.9	65	21.5	0	1	292	0.00	30.241 
16:10	31.9	31.9	31.9	65	21.5	1	3	292	0.00	30.241 
16:15	31.8	31.8	31.8	64	21.0	1	4	292	0.00	30.242 
16:20	31.8	31.8	31.8	64	21.0	0	2	292	0.00	30.242 
16:25	31.8	31.8	31.8	65	21.4	0	2	292	0.00	30.242 
16:30	31.8	31.8	31.8	65	21.4	1	2	292	0.00	30.242 
16:35	31.6	31.6	31.6	65	21.2	0	2	292	0.00	30.242 
16:40	31.8	31.8	31.8	66	21.8	0	1	292	0.00	30.242 
16:45	31.6	31.6	31.6	65	21.2	1	3	292	0.00	30.243 
16:50	31.5	31.5	31.5	65	21.1	1	3	292	0.00	30.243 
16:55	31.5	31.5	31.5	65	21.1	1	2	292	0.00	30.243 
17:00	31.3	31.3	31.3	65	20.9	1	3	292	0.00	30.250 
17:05	31.3	31.3	31.3	66	21.3	0	2	292	0.00	30.250 
17:10	31.2	31.2	31.2	66	21.2	0	1	292	0.00	30.250 
17:15	31.2	31.2	31.2	66	21.2	1	3	292	0.00	30.255 
17:20	31.2	31.2	31.2	66	21.2	0	3	292	0.00	30.255 
17:25	31.2	31.2	31.2	66	21.2	0	1	292	0.00	30.255 
17:30	31.0	31.0	31.0	65	20.6	1	2	292	0.00	30.259 
17:35	31.0	31.0	31.0	65	20.6	1	3	292	0.00	30.259 
17:40	31.2	31.2	31.2	66	21.2	1	3	292	0.00	30.259 
17:45	31.0	31.0	31.0	65	20.6	1	5	292	0.00	30.262 
17:50	31.0	31.0	31.0	66	21.0	1	3	292	0.00	30.262 
17:55	31.0	31.0	31.0	67	21.3	0	2	292	0.00	30.262 
18:00	30.9	30.9	30.9	67	21.3	0	2	292	0.00	30.262 
18:05	30.9	30.9	30.9	67	21.3	0	3	292	0.00	30.262 
18:10	30.7	30.7	30.7	66	20.7	0	2	292	0.00	30.262 
18:15	30.7	30.7	30.7	66	20.7	0	1	292	0.00	30.261 
18:20	30.7	30.7	30.7	67	21.1	0	1	292	0.00	30.261 
18:25	30.6	30.6	30.6	66	20.6	0	2	292	0.00	30.261 
18:30	30.6	30.6	30.6	66	20.6	0	2	292	0.00	30.261 
18:35	30.4	30.4	30.4	66	20.4	0	1	292	0.00	30.261 
18:40	30.4	30.4	30.4	67	20.8	0	1	292	0.00	30.261 
18:45	30.4	30.4	30.4	67	20.8	0	1	292	0.00	30.262 
18:50	30.4	30.4	30.4	67	20.8	0	1	292	0.00	30.262 
18:55	30.4	30.4	30.4	67	20.8	0	2	292	0.00	30.262 
19:00	30.3	30.3	30.3	67	20.7	0	1	292	0.00	30.263 
19:05	30.3	30.3	30.3	67	20.7	0	2	292	0.00	30.263 
19:10	30.3	30.3	30.3	67	20.7	0	3	292	0.00	30.263 
19:15	30.3	30.3	30.3	67	20.7	0	1	292	0.00	30.262 
19:20	30.3	30.3	30.3	66	20.3	0	1	292	0.00	30.262 
19:25	30.3	30.3	30.3	66	20.3	0	1	292	0.00	30.262 
19:30	30.3	30.3	30.3	66	20.3	0	2	292	0.00	30.260 
19:35	30.3	30.3	30.3	66	20.3	0	1	292	0.00	30.260 
19:40	30.3	30.3	30.3	66	20.3	0	2	292	0.00	30.260 
19:45	30.3	30.3	30.3	66	20.3	0	3	292	0.00	30.261 
19:50	30.3	30.3	30.3	66	20.3	0	3	292	0.00	30.261 
19:55	30.1	30.1	30.1	66	20.1	0	1	292	0.00	30.261 
20:00	30.1	30.1	30.1	66	20.1	0	1	292	0.00	30.263 
20:05	30.1	30.1	30.1	67	20.5	0	3	292	0.00	30.263 
20:10	30.1	30.1	30.1	67	20.5	0	2	292	0.00	30.263 
20:15	30.1	30.1	30.1	67	20.5	0	2	292	0.00	30.261 
20:20	30.0	30.0	30.0	67	20.4	0	1	292	0.00	30.261 
20:25	30.0	30.0	30.0	67	20.4	0	2	292	0.00	30.261 
20:30	29.8	29.8	29.8	67	20.2	0	2	292	0.00	30.262 
20:35	29.8	29.8	29.8	67	20.2	0	1	292	0.00	30.262 
20:40	29.8	29.8	29.8	66	19.8	0	2	292	0.00	30.262 
20:45	29.8	29.8	29.8	65	19.5	0	2	292	0.00	30.264 
20:50	29.8	29.8	29.8	66	19.8	0	2	292	0.00	30.264 
20:55	29.8	29.8	29.8	66	19.8	0	1	292	0.00	30.264 
21:00	29.8	29.8	29.8	66	19.8	0	1	292	0.00	30.269 
21:05	29.8	29.8	29.8	66	19.8	0	2	292	0.00	30.269 
21:10	29.8	29.8	29.8	66	19.8	0	1	292	0.00	30.269 
21:15	29.8	29.8	29.8	66	19.8	0	3	292	0.00	30.265 
21:20	29.8	29.8	29.8	66	19.8	0	3	292	0.00	30.265 
21:25	29.8	29.8	29.8	66	19.8	0	1	292	0.00	30.265 
21:30	29.8	29.8	29.8	66	19.8	0	3	292	0.00	30.263 
21:35	29.7	29.7	29.7	66	19.8	0	3	292	0.00	30.263 
21:40	29.7	29.7	29.7	67	20.1	0	2	292	0.00	30.263 
21:45	29.8	29.8	29.8	67	20.2	0	1	292	0.00	30.263 
21:50	29.8	29.8	29.8	67	20.2	0	1	292	0.00	30.263 
21:55	29.8	29.8	29.8	67	20.2	0	2	292	0.00	30.263 
22:00	29.7	29.7	29.7	67	20.1	0	1	292	0.00	30.263 
22:05	29.7	29.7	29.7	67	20.1	0	1	292	0.00	30.263 
22:10	29.7	29.7	29.7	67	20.1	1	3	292	0.00	30.263 
22:15	29.7	29.7	29.7	68	20.5	0	2	292	0.00	30.263 
22:20	29.7	29.7	29.7	69	20.8	0	1	292	0.00	30.263 
22:25	29.7	29.7	29.7	69	20.8	0	2	292	0.00	30.263 
22:30	29.7	29.7	29.7	69	20.8	0	2	292	0.00	30.261 
22:35	29.7	29.7	29.7	69	20.8	0	2	292	0.00	30.261 
22:40	29.7	29.7	29.7	69	20.8	0	2	292	0.00	30.261 
22:45	29.7	29.7	29.7	69	20.8	0	2	292	0.00	30.260 
22:50	29.5	29.5	29.5	69	20.6	0	3	292	0.00	30.260 
22:55	29.5	29.5	29.5	69	20.6	1	2	292	0.00	30.260 
23:00	29.4	29.4	29.4	68	20.2	0	2	292	0.00	30.256 
23:05	29.4	29.4	29.4	67	19.8	1	2	292	0.00	30.256 
23:10	29.3	29.3	29.3	67	19.7	1	2	292	0.00	30.256 
23:15	29.3	29.3	29.3	67	19.7	1	4	292	0.00	30.247 
23:20	29.3	29.3	29.3	67	19.7	0	2	292	0.00	30.247 
23:25	29.3	29.3	29.3	67	19.7	1	3	292	0.00	30.247 
23:30	29.1	29.1	29.1	67	19.5	1	3	292	0.00	30.249 
23:35	29.1	29.1	29.1	67	19.5	1	3	292	0.00	30.249 
23:40	29.1	29.1	29.1	67	19.5	1	3	292	0.00	30.249 
23:45	29.0	29.0	29.0	68	19.8	1	4	292	0.00	30.247 
23:50	29.0	29.0	29.0	68	19.8	1	3	292	0.00	30.247 
23:55	29.0	29.0	29.0	67	19.4	1	3	292	0.00	30.247 

CoCoRaHS
IN-AL-39
A2 Web Hosting
Creative Commons License
GoDaddy
search engine by freefind advanced

loaded 2018-11-14 03:46:54 • last modified 2010-11-18 10:43:29
Privacy PolicyDisclaimer
• wx.awcolley.com is powered by PmWiki v.2002016 •
• all content (unless otherwise noted) © 2018 A W Colley